Time;durP1;ratioP1;P1;durP2;ratioP2;P2;SDS_P1;SDS_P2;PMS_P1;PMS_P2;Temp;Humidity;BMP_temperature;BMP_pressure;BME280_temperature;BME280_humidity;BME280_pressure;Samples;Min_cycle;Max_cycle;Signal;HPM_P1;HPM_P2
2023/04/18 00:01:13;;;;;;;14.77;8.70;;;7.10;99.90;;;;;;4989491;28;20187;-72
2023/04/18 00:03:39;;;;;;;14.10;7.07;;;7.10;99.90;;;;;;4991066;28;20179;-72
2023/04/18 00:06:05;;;;;;;18.13;8.80;;;7.20;99.90;;;;;;4991357;28;20438;-72
2023/04/18 00:08:31;;;;;;;15.60;7.50;;;7.10;99.90;;;;;;4991201;28;20253;-73
2023/04/18 00:10:57;;;;;;;11.53;6.30;;;7.10;99.90;;;;;;4991357;28;20183;-72
2023/04/18 00:13:23;;;;;;;10.83;5.87;;;7.10;99.90;;;;;;4991101;28;20426;-72
2023/04/18 00:15:48;;;;;;;15.83;8.50;;;7.10;99.90;;;;;;4991312;28;20188;-72
2023/04/18 00:18:16;;;;;;;13.70;7.20;;;7.20;99.90;;;;;;4974657;28;20176;-72
2023/04/18 00:20:42;;;;;;;27.37;8.70;;;7.10;99.90;;;;;;4992777;28;20204;-72
2023/04/18 00:23:08;;;;;;;17.80;6.93;;;7.10;99.90;;;;;;4993606;28;20861;-72
2023/04/18 00:25:33;;;;;;;19.23;7.60;;;7.10;99.90;;;;;;4992218;28;20179;-72
2023/04/18 00:27:59;;;;;;;13.70;6.97;;;7.10;99.90;;;;;;4992931;28;20267;-73
2023/04/18 00:30:25;;;;;;;10.00;5.97;;;7.10;99.90;;;;;;4989335;28;20588;-72
2023/04/18 00:32:51;;;;;;;17.03;8.07;;;7.10;99.90;;;;;;4992896;28;20172;-72
2023/04/18 00:35:18;;;;;;;16.10;8.63;;;7.10;99.90;;;;;;4988048;28;20792;-71
2023/04/18 00:37:44;;;;;;;12.77;6.47;;;7.10;99.90;;;;;;4990047;28;20238;-73
2023/04/18 00:40:10;;;;;;;14.40;7.33;;;7.10;99.90;;;;;;4987668;28;20419;-73
2023/04/18 00:42:35;;;;;;;19.70;7.00;;;7.10;99.90;;;;;;4993142;28;20268;-71
2023/04/18 00:45:01;;;;;;;21.07;8.83;;;7.20;99.90;;;;;;4993463;28;20852;-72
2023/04/18 00:47:27;;;;;;;21.20;8.77;;;7.10;99.90;;;;;;4995267;28;21022;-71
2023/04/18 00:49:53;;;;;;;13.00;7.47;;;7.10;99.90;;;;;;4994354;28;20221;-71
2023/04/18 00:52:19;;;;;;;17.33;8.37;;;7.10;99.90;;;;;;4995395;28;20172;-71
2023/04/18 00:54:46;;;;;;;9.80;6.87;;;7.10;99.90;;;;;;4995466;28;20477;-70
2023/04/18 00:57:12;;;;;;;15.13;7.67;;;7.10;99.90;;;;;;4997536;28;20968;-71
2023/04/18 00:59:38;;;;;;;13.27;6.13;;;7.10;99.90;;;;;;4996618;28;20445;-70
2023/04/18 01:02:04;;;;;;;14.00;7.20;;;7.10;99.90;;;;;;4992530;28;20908;-71
2023/04/18 01:04:31;;;;;;;13.67;7.43;;;7.10;99.90;;;;;;4994529;28;20200;-70
2023/04/18 01:06:57;;;;;;;19.57;8.40;;;7.10;99.90;;;;;;4994445;28;20616;-71
2023/04/18 01:09:24;;;;;;;17.70;6.83;;;7.00;99.90;;;;;;4994374;28;20498;-71
2023/04/18 01:11:50;;;;;;;16.20;7.80;;;7.10;99.90;;;;;;4994280;28;20415;-71
2023/04/18 01:14:18;;;;;;;16.97;8.13;;;7.00;99.90;;;;;;4993933;28;20422;-72
2023/04/18 01:16:45;;;;;;;13.83;6.63;;;7.00;99.90;;;;;;4997066;28;20290;-72
2023/04/18 01:19:10;;;;;;;12.77;7.87;;;7.10;99.90;;;;;;4995547;28;20418;-72
2023/04/18 01:21:36;;;;;;;17.10;7.03;;;7.10;99.90;;;;;;4996506;28;20779;-71
2023/04/18 01:24:08;;;;;;;13.30;6.33;;;7.00;99.90;;;;;;4993849;28;20183;-71
2023/04/18 01:26:33;;;;;;;16.97;6.77;;;7.00;99.90;;;;;;4995152;28;20203;-71
2023/04/18 01:28:59;;;;;;;19.23;7.60;;;7.00;99.90;;;;;;4991868;28;20458;-71
2023/04/18 01:31:24;;;;;;;12.80;6.73;;;7.00;99.90;;;;;;4994869;28;20188;-71
2023/04/18 01:33:50;;;;;;;16.80;7.27;;;7.00;99.90;;;;;;4996628;28;20266;-72
2023/04/18 01:36:16;;;;;;;16.70;7.00;;;7.00;99.90;;;;;;4995225;28;20176;-71
2023/04/18 01:38:41;;;;;;;15.73;7.50;;;7.00;99.90;;;;;;4991692;28;20674;-72
2023/04/18 01:41:07;;;;;;;11.73;6.83;;;7.00;99.90;;;;;;4995036;28;20198;-72
2023/04/18 01:43:32;;;;;;;18.00;7.50;;;7.00;99.90;;;;;;4996972;28;20179;-71
2023/04/18 01:45:58;;;;;;;13.50;6.60;;;7.00;99.90;;;;;;4995453;28;20262;-71
2023/04/18 01:48:24;;;;;;;15.20;6.73;;;7.00;99.90;;;;;;4976748;28;20187;-71
2023/04/18 01:50:49;;;;;;;17.20;7.00;;;7.00;99.90;;;;;;4997486;28;20235;-72
2023/04/18 01:53:16;;;;;;;16.97;7.40;;;6.90;99.90;;;;;;4994723;28;20180;-72
2023/04/18 01:55:42;;;;;;;13.83;7.00;;;7.00;99.90;;;;;;4993761;28;20229;-72
2023/04/18 01:58:08;;;;;;;18.97;7.17;;;7.00;99.90;;;;;;4993066;28;20462;-71
2023/04/18 02:00:33;;;;;;;13.37;6.43;;;7.00;99.90;;;;;;4995356;28;20187;-72
2023/04/18 02:02:59;;;;;;;20.60;6.37;;;7.00;99.90;;;;;;4990843;28;20192;-72
2023/04/18 02:05:27;;;;;;;22.57;6.50;;;7.00;99.90;;;;;;4993086;28;20670;-71
2023/04/18 02:07:53;;;;;;;10.37;5.30;;;7.00;99.90;;;;;;4993535;28;20275;-71
2023/04/18 02:10:19;;;;;;;11.53;6.40;;;7.10;99.90;;;;;;4994533;28;20658;-71
2023/04/18 02:12:44;;;;;;;20.43;6.60;;;7.00;99.90;;;;;;4992494;28;20255;-71
2023/04/18 02:15:10;;;;;;;16.87;6.40;;;7.00;99.90;;;;;;4990154;28;20187;-71
2023/04/18 02:17:36;;;;;;;13.87;6.97;;;7.00;99.90;;;;;;4990945;28;20222;-71
2023/04/18 02:20:02;;;;;;;14.40;7.10;;;7.00;99.90;;;;;;4996109;28;20182;-71
2023/04/18 02:22:28;;;;;;;11.07;6.10;;;7.00;99.90;;;;;;4992635;28;20428;-71
2023/04/18 02:24:54;;;;;;;15.50;6.73;;;7.00;99.90;;;;;;4995903;28;20437;-71
2023/04/18 02:27:19;;;;;;;13.43;7.07;;;7.00;99.90;;;;;;4990785;28;20554;-71
2023/04/18 02:29:45;;;;;;;12.47;5.97;;;7.00;99.90;;;;;;4995148;28;20233;-72
2023/04/18 02:32:11;;;;;;;15.57;7.00;;;6.90;99.90;;;;;;4991436;28;20179;-71
2023/04/18 02:34:36;;;;;;;15.23;7.40;;;6.90;99.90;;;;;;4992650;28;20241;-71
2023/04/18 02:37:03;;;;;;;12.87;6.83;;;7.00;99.90;;;;;;4994472;28;20179;-71
2023/04/18 02:39:29;;;;;;;15.90;7.33;;;7.00;99.90;;;;;;4995337;28;20187;-71
2023/04/18 02:41:54;;;;;;;13.50;7.53;;;7.00;99.90;;;;;;4993179;28;20419;-71
2023/04/18 02:44:20;;;;;;;10.53;5.13;;;7.00;99.90;;;;;;4995037;28;20217;-71
2023/04/18 02:46:45;;;;;;;12.60;5.83;;;7.00;99.90;;;;;;4994321;28;20590;-71
2023/04/18 02:49:11;;;;;;;14.00;7.60;;;7.00;99.90;;;;;;4990800;28;20277;-72
2023/04/18 02:51:36;;;;;;;10.27;6.27;;;7.00;99.90;;;;;;4993966;28;20687;-72
2023/04/18 02:54:02;;;;;;;15.07;6.73;;;7.00;99.90;;;;;;4993996;28;20175;-72
2023/04/18 02:56:28;;;;;;;18.80;6.93;;;6.90;99.90;;;;;;4993687;28;20617;-71
2023/04/18 02:58:53;;;;;;;13.70;6.27;;;7.00;99.90;;;;;;4991584;28;20302;-71
2023/04/18 03:01:19;;;;;;;16.70;6.13;;;7.00;99.90;;;;;;4992876;28;20628;-72
2023/04/18 03:03:45;;;;;;;15.03;6.93;;;7.00;99.90;;;;;;4992039;28;21264;-71
2023/04/18 03:06:11;;;;;;;12.80;6.67;;;7.00;99.90;;;;;;4991553;28;20872;-71
2023/04/18 03:08:37;;;;;;;11.03;6.30;;;6.90;99.90;;;;;;4992151;28;20188;-71
2023/04/18 03:11:02;;;;;;;13.30;6.70;;;7.00;99.90;;;;;;4991554;28;20187;-71
2023/04/18 03:13:28;;;;;;;14.53;7.57;;;6.80;99.90;;;;;;4989216;28;20222;-71
2023/04/18 03:15:53;;;;;;;12.17;6.10;;;6.90;99.90;;;;;;4989737;28;20710;-71
2023/04/18 03:18:19;;;;;;;13.20;6.73;;;6.90;99.90;;;;;;4992647;28;20226;-71
2023/04/18 03:20:45;;;;;;;14.80;6.63;;;6.90;99.90;;;;;;4994037;28;20210;-71
2023/04/18 03:23:10;;;;;;;16.13;6.83;;;6.90;99.90;;;;;;4987534;28;20198;-71
2023/04/18 03:25:36;;;;;;;14.67;6.30;;;6.90;99.90;;;;;;4990998;28;20234;-71
2023/04/18 03:28:01;;;;;;;11.80;6.97;;;6.90;99.90;;;;;;4993467;28;20195;-71
2023/04/18 03:30:27;;;;;;;12.60;6.40;;;6.90;99.90;;;;;;4991732;28;20207;-71
2023/04/18 03:32:54;;;;;;;17.77;7.53;;;6.80;99.90;;;;;;4992129;28;20226;-71
2023/04/18 03:35:20;;;;;;;15.13;7.40;;;6.80;99.90;;;;;;4992966;28;20172;-71
2023/04/18 03:37:46;;;;;;;15.07;6.63;;;6.80;99.90;;;;;;4991058;28;20434;-71
2023/04/18 03:40:11;;;;;;;9.50;5.77;;;6.80;99.90;;;;;;4990122;28;20188;-71
2023/04/18 03:42:37;;;;;;;12.30;5.67;;;6.80;99.90;;;;;;4992852;28;20667;-71
2023/04/18 03:45:03;;;;;;;14.70;7.40;;;6.80;99.90;;;;;;4992638;28;20263;-71
2023/04/18 03:47:30;;;;;;;13.03;7.27;;;6.80;99.90;;;;;;4992612;28;20188;-71
2023/04/18 03:49:56;;;;;;;13.07;7.80;;;6.70;99.90;;;;;;4992858;28;20208;-71
2023/04/18 03:52:21;;;;;;;17.63;7.67;;;6.70;99.90;;;;;;4992240;28;20462;-71
2023/04/18 03:54:47;;;;;;;19.17;8.13;;;6.70;99.90;;;;;;4992366;28;20702;-71
2023/04/18 03:57:13;;;;;;;18.17;7.40;;;6.70;99.90;;;;;;4990543;28;20184;-71
2023/04/18 03:59:38;;;;;;;16.40;6.20;;;6.70;99.90;;;;;;4991522;28;20230;-71
2023/04/18 04:02:04;;;;;;;13.10;6.63;;;6.70;99.90;;;;;;4992719;28;20334;-71
2023/04/18 04:04:29;;;;;;;9.90;5.47;;;6.60;99.90;;;;;;4992378;28;20629;-72
2023/04/18 04:06:55;;;;;;;14.73;7.93;;;6.60;99.90;;;;;;4991720;28;20656;-72
2023/04/18 04:09:21;;;;;;;14.80;7.50;;;6.60;99.90;;;;;;4990412;28;20298;-71
2023/04/18 04:11:46;;;;;;;16.77;7.70;;;6.60;99.90;;;;;;4989893;28;20771;-71
2023/04/18 04:14:12;;;;;;;15.80;7.90;;;6.60;99.90;;;;;;4990235;28;20191;-71
2023/04/18 04:16:38;;;;;;;14.53;7.50;;;6.60;99.90;;;;;;4991666;28;20184;-71
2023/04/18 04:19:03;;;;;;;14.27;8.00;;;6.70;99.90;;;;;;4991129;28;20200;-71
2023/04/18 04:21:30;;;;;;;13.60;7.00;;;6.60;99.90;;;;;;4990285;28;20191;-71
2023/04/18 04:23:56;;;;;;;18.87;6.57;;;6.60;99.90;;;;;;4986564;28;20486;-71
2023/04/18 04:26:22;;;;;;;13.13;6.40;;;6.60;99.90;;;;;;4993632;28;20964;-71
2023/04/18 04:28:48;;;;;;;14.17;6.33;;;6.60;99.90;;;;;;4990270;28;20465;-71
2023/04/18 04:31:15;;;;;;;22.37;6.90;;;6.60;99.90;;;;;;4991396;28;20187;-71
2023/04/18 04:33:41;;;;;;;10.20;6.43;;;6.50;99.90;;;;;;4990527;28;20466;-72
2023/04/18 04:36:07;;;;;;;18.13;7.80;;;6.50;99.90;;;;;;4987291;28;20427;-72
2023/04/18 04:38:36;;;;;;;16.23;7.87;;;6.50;99.90;;;;;;4989090;28;20522;-72
2023/04/18 04:41:03;;;;;;;13.43;6.37;;;6.50;99.90;;;;;;4990260;28;20431;-72
2023/04/18 04:43:29;;;;;;;11.70;7.00;;;6.50;99.90;;;;;;4990046;28;20529;-72
2023/04/18 04:45:56;;;;;;;13.47;6.47;;;6.50;99.90;;;;;;4992225;28;20517;-72
2023/04/18 04:48:23;;;;;;;12.50;6.83;;;6.50;99.90;;;;;;4990760;28;20198;-72
2023/04/18 04:50:56;;;;;;;14.33;6.80;;;6.50;99.90;;;;;;4992393;28;20982;-72
2023/04/18 04:53:24;;;;;;;14.10;7.03;;;6.50;99.90;;;;;;4987309;28;20593;-72
2023/04/18 04:55:50;;;;;;;9.37;6.90;;;6.50;99.90;;;;;;4973718;28;20423;-72
2023/04/18 04:58:16;;;;;;;13.43;7.83;;;6.50;99.90;;;;;;4991523;28;20900;-72
2023/04/18 05:00:42;;;;;;;22.00;7.60;;;6.50;99.90;;;;;;4990591;28;20438;-72
2023/04/18 05:03:08;;;;;;;13.80;7.50;;;6.50;99.90;;;;;;4989736;28;20523;-72
2023/04/18 05:05:33;;;;;;;28.67;8.43;;;6.50;99.90;;;;;;4990174;28;20211;-72
2023/04/18 05:07:59;;;;;;;13.00;7.90;;;6.50;99.90;;;;;;4990709;28;20435;-72
2023/04/18 05:10:25;;;;;;;13.27;7.83;;;6.50;99.90;;;;;;4990826;28;20286;-72
2023/04/18 05:12:50;;;;;;;16.87;8.00;;;6.50;99.90;;;;;;4988707;28;20238;-72
2023/04/18 05:15:17;;;;;;;15.33;7.20;;;6.50;99.90;;;;;;4991161;28;20179;-71
2023/04/18 05:17:42;;;;;;;17.53;8.97;;;6.50;99.90;;;;;;4993164;28;20180;-71
2023/04/18 05:20:09;;;;;;;15.90;7.50;;;6.50;99.90;;;;;;4993031;28;20442;-72
2023/04/18 05:22:34;;;;;;;15.87;6.80;;;6.50;99.90;;;;;;4992760;28;20195;-72
2023/04/18 05:25:01;;;;;;;17.70;9.23;;;6.50;99.90;;;;;;4994282;28;20800;-72
2023/04/18 05:27:26;;;;;;;13.97;7.53;;;6.50;99.90;;;;;;4991163;28;20463;-72
2023/04/18 05:29:52;;;;;;;12.20;7.50;;;6.50;99.90;;;;;;4990261;28;20494;-72
2023/04/18 05:32:18;;;;;;;17.77;7.30;;;6.50;99.90;;;;;;4992024;28;20191;-72
2023/04/18 05:34:44;;;;;;;17.10;7.17;;;6.50;99.90;;;;;;4993225;28;20185;-73
2023/04/18 05:37:09;;;;;;;12.60;6.70;;;6.50;99.90;;;;;;4991762;28;20526;-73
2023/04/18 05:39:35;;;;;;;17.00;7.70;;;6.50;99.90;;;;;;4995937;28;20556;-73
2023/04/18 05:42:01;;;;;;;15.33;7.37;;;6.50;99.90;;;;;;4992902;28;20282;-73
2023/04/18 05:44:28;;;;;;;14.70;7.50;;;6.60;99.90;;;;;;4994394;28;20699;-73
2023/04/18 05:46:54;;;;;;;25.17;8.00;;;6.60;99.90;;;;;;4994664;28;20460;-73
2023/04/18 05:49:19;;;;;;;12.17;6.70;;;6.60;99.90;;;;;;4996801;28;20489;-72
2023/04/18 05:51:45;;;;;;;15.23;6.90;;;6.60;99.90;;;;;;4993375;28;20184;-72
2023/04/18 05:54:11;;;;;;;11.80;7.30;;;6.60;99.90;;;;;;4996161;28;20678;-72
2023/04/18 05:56:37;;;;;;;15.33;7.57;;;6.50;99.90;;;;;;4992723;28;20620;-73
2023/04/18 05:59:03;;;;;;;15.03;7.77;;;6.50;99.90;;;;;;4994557;28;20215;-73
2023/04/18 06:01:29;;;;;;;23.13;8.90;;;6.60;99.90;;;;;;4992570;28;20470;-73
2023/04/18 06:03:54;;;;;;;13.23;6.67;;;6.60;99.90;;;;;;4992277;28;20544;-73
2023/04/18 06:06:20;;;;;;;18.07;8.33;;;6.60;99.90;;;;;;4994502;28;20234;-73
2023/04/18 06:08:46;;;;;;;16.17;7.70;;;6.70;99.90;;;;;;4994111;28;20925;-73
2023/04/18 06:11:14;;;;;;;19.40;7.27;;;6.70;99.90;;;;;;4991899;28;20478;-71
2023/04/18 06:13:40;;;;;;;17.20;8.10;;;6.80;99.90;;;;;;4992437;28;20218;-74
2023/04/18 06:16:06;;;;;;;15.10;8.00;;;6.90;99.90;;;;;;4990077;28;20474;-72
2023/04/18 06:18:32;;;;;;;19.30;8.50;;;6.90;99.90;;;;;;4993025;28;20447;-72
2023/04/18 06:20:57;;;;;;;17.20;8.30;;;6.80;99.90;;;;;;4993018;28;20438;-72
2023/04/18 06:23:23;;;;;;;16.60;7.30;;;6.90;99.90;;;;;;4992268;28;20191;-72
2023/04/18 06:25:49;;;;;;;14.80;7.20;;;6.90;99.90;;;;;;4990449;28;20719;-72
2023/04/18 06:28:15;;;;;;;16.00;7.40;;;6.80;99.90;;;;;;4992134;28;20263;-72
2023/04/18 06:30:40;;;;;;;10.27;6.30;;;6.80;99.90;;;;;;4990916;28;20675;-72
2023/04/18 06:33:09;;;;;;;17.80;7.60;;;6.80;99.90;;;;;;4992325;28;20184;-72
2023/04/18 06:35:35;;;;;;;16.47;8.00;;;6.80;99.90;;;;;;4990782;28;20621;-72
2023/04/18 06:38:00;;;;;;;10.90;6.57;;;6.90;99.90;;;;;;4991791;28;20433;-72
2023/04/18 06:40:26;;;;;;;17.10;8.30;;;6.90;99.90;;;;;;4993015;28;20250;-72
2023/04/18 06:42:52;;;;;;;11.83;6.97;;;6.90;99.90;;;;;;4990713;28;20515;-72
2023/04/18 06:45:17;;;;;;;16.83;7.97;;;6.90;99.90;;;;;;4993856;28;20219;-71
2023/04/18 06:47:43;;;;;;;16.53;8.30;;;7.00;99.90;;;;;;4995241;28;20191;-71
2023/04/18 06:50:09;;;;;;;18.60;9.30;;;6.90;99.90;;;;;;4993017;28;20258;-71
2023/04/18 06:52:39;;;;;;;16.90;7.80;;;6.90;99.90;;;;;;4991226;28;20187;-71
2023/04/18 06:55:06;;;;;;;15.00;7.70;;;7.00;99.90;;;;;;4991185;28;20920;-71
2023/04/18 06:57:32;;;;;;;15.93;6.97;;;7.00;99.90;;;;;;4989606;28;20449;-71
2023/04/18 06:59:57;;;;;;;21.17;7.80;;;7.00;99.90;;;;;;4990066;28;20423;-71
2023/04/18 07:02:23;;;;;;;18.73;7.90;;;7.00;99.90;;;;;;4989225;28;20199;-71
2023/04/18 07:04:49;;;;;;;18.37;8.07;;;7.00;99.90;;;;;;4991051;28;20227;-71
2023/04/18 07:07:14;;;;;;;12.90;6.90;;;7.10;99.90;;;;;;4989440;28;20182;-71
2023/04/18 07:09:40;;;;;;;16.43;7.47;;;7.00;99.90;;;;;;4990652;28;20217;-71
2023/04/18 07:12:06;;;;;;;17.43;7.27;;;7.00;99.90;;;;;;4989099;28;20211;-71
2023/04/18 07:14:31;;;;;;;15.73;7.00;;;7.00;99.90;;;;;;4989943;28;21061;-71
2023/04/18 07:16:57;;;;;;;20.10;8.40;;;7.10;99.90;;;;;;4991866;28;20263;-71
2023/04/18 07:19:23;;;;;;;13.57;7.27;;;7.10;99.90;;;;;;4989928;28;20205;-71
2023/04/18 07:21:49;;;;;;;15.63;8.00;;;7.20;99.90;;;;;;4990665;28;20187;-71
2023/04/18 07:24:14;;;;;;;16.33;8.13;;;7.20;99.90;;;;;;4991526;28;20188;-71
2023/04/18 07:26:40;;;;;;;28.57;7.87;;;7.30;99.90;;;;;;4989094;28;20191;-72
2023/04/18 07:29:05;;;;;;;12.40;6.80;;;7.30;99.90;;;;;;4988876;28;20623;-71
2023/04/18 07:31:31;;;;;;;15.40;7.27;;;7.40;99.90;;;;;;4991240;28;20188;-71
2023/04/18 07:33:57;;;;;;;18.27;8.30;;;7.40;99.90;;;;;;4989733;28;20684;-71
2023/04/18 07:36:23;;;;;;;11.50;7.63;;;7.50;99.90;;;;;;4991468;28;20526;-73
2023/04/18 07:38:50;;;;;;;12.30;6.33;;;7.40;99.90;;;;;;4988791;28;20192;-72
2023/04/18 07:41:16;;;;;;;13.23;7.17;;;7.50;99.90;;;;;;4990346;28;20504;-72
2023/04/18 07:43:43;;;;;;;12.47;6.50;;;7.60;99.90;;;;;;4988298;28;20450;-73
2023/04/18 07:46:09;;;;;;;14.70;6.40;;;7.50;99.90;;;;;;4988190;28;20226;-73
2023/04/18 07:48:35;;;;;;;12.07;6.83;;;7.60;99.90;;;;;;4989095;28;20477;-72
2023/04/18 07:51:01;;;;;;;14.83;6.93;;;7.50;99.90;;;;;;4989871;28;20445;-72
2023/04/18 07:53:27;;;;;;;11.50;6.50;;;7.80;99.90;;;;;;4990581;28;20291;-72
2023/04/18 07:55:53;;;;;;;12.00;6.30;;;7.80;99.90;;;;;;4991416;28;20518;-72
2023/04/18 07:58:19;;;;;;;16.00;7.40;;;7.80;99.90;;;;;;4995545;28;20681;-72
2023/04/18 08:00:45;;;;;;;18.10;8.70;;;7.80;99.90;;;;;;4995196;28;20419;-72
2023/04/18 08:03:11;;;;;;;20.33;8.60;;;7.80;99.90;;;;;;4994109;28;20489;-72
2023/04/18 08:05:41;;;;;;;16.20;8.43;;;7.90;99.90;;;;;;4995486;28;20200;-72
2023/04/18 08:08:08;;;;;;;15.47;7.17;;;7.90;99.90;;;;;;4992561;28;20983;-71
2023/04/18 08:10:35;;;;;;;21.17;6.70;;;8.10;99.90;;;;;;4995861;28;20528;-72
2023/04/18 08:13:01;;;;;;;13.03;7.13;;;8.20;99.90;;;;;;4988319;28;20430;-72
2023/04/18 08:15:27;;;;;;;9.77;5.97;;;8.30;99.90;;;;;;4990219;28;20477;-72
2023/04/18 08:17:54;;;;;;;17.33;6.80;;;8.20;99.90;;;;;;4988528;28;20454;-73
2023/04/18 08:20:20;;;;;;;12.47;7.40;;;8.30;99.90;;;;;;4988480;28;20431;-73
2023/04/18 08:22:46;;;;;;;13.27;6.70;;;8.30;99.90;;;;;;4989752;28;20462;-72
2023/04/18 08:25:11;;;;;;;13.27;6.37;;;8.30;99.90;;;;;;4988824;28;20427;-72
2023/04/18 08:27:37;;;;;;;13.93;6.90;;;8.40;99.90;;;;;;4986183;28;20781;-71
2023/04/18 08:30:03;;;;;;;12.37;7.10;;;8.20;99.90;;;;;;4987669;28;20203;-72
2023/04/18 08:32:32;;;;;;;22.23;7.30;;;8.20;99.90;;;;;;4986091;28;20203;-71
2023/04/18 08:34:58;;;;;;;20.57;8.30;;;8.20;99.90;;;;;;4985819;28;20427;-71
2023/04/18 08:37:24;;;;;;;15.87;6.93;;;8.20;99.90;;;;;;4986100;28;20827;-72
2023/04/18 08:39:49;;;;;;;18.70;7.17;;;8.20;99.90;;;;;;4986909;28;20278;-71
2023/04/18 08:42:18;;;;;;;16.03;7.70;;;8.10;99.90;;;;;;4970904;28;20183;-71
2023/04/18 08:44:46;;;;;;;13.43;6.53;;;8.10;99.90;;;;;;4988130;28;20194;-71
2023/04/18 08:47:11;;;;;;;17.77;7.07;;;8.10;99.90;;;;;;4986694;28;20522;-70
2023/04/18 08:49:38;;;;;;;13.20;6.93;;;8.20;99.90;;;;;;4989110;28;20550;-71
2023/04/18 08:52:10;;;;;;;17.93;7.33;;;8.10;99.90;;;;;;4987454;28;20184;-73
2023/04/18 08:54:37;;;;;;;18.77;7.20;;;8.10;99.90;;;;;;4990530;28;20845;-72
2023/04/18 08:57:07;;;;;;;11.10;6.23;;;8.00;99.90;;;;;;4987700;28;20430;-72
2023/04/18 08:59:34;;;;;;;13.13;7.53;;;8.10;99.90;;;;;;4988906;28;20434;-73
2023/04/18 09:02:01;;;;;;;16.53;7.20;;;8.20;99.90;;;;;;4988264;28;20438;-73
2023/04/18 09:04:44;;;;;;;12.97;7.33;;;8.30;99.90;;;;;;4987149;28;20443;-73
2023/04/18 09:07:14;;;;;;;14.07;6.77;;;8.70;99.90;;;;;;4989873;28;20943;-73
2023/04/18 09:09:46;;;;;;;12.47;6.50;;;8.70;99.90;;;;;;4991137;28;20463;-73
2023/04/18 09:12:21;;;;;;;16.20;6.83;;;8.80;99.90;;;;;;4990902;28;20513;-73
2023/04/18 09:14:53;;;;;;;20.00;7.47;;;8.90;99.90;;;;;;4990235;28;20418;-73
2023/04/18 09:17:40;;;;;;;11.93;7.30;;;9.10;99.90;;;;;;4992551;28;20419;-73
2023/04/18 09:20:11;;;;;;;15.50;6.77;;;9.20;99.90;;;;;;4992810;28;20510;-72
2023/04/18 09:22:50;;;;;;;13.77;6.40;;;9.30;99.90;;;;;;4990579;28;20430;-73
2023/04/18 09:25:36;;;;;;;14.17;7.50;;;9.30;99.90;;;;;;4990205;28;20423;-73
2023/04/18 09:28:23;;;;;;;14.10;6.33;;;9.40;99.90;;;;;;4991974;28;20423;-73
2023/04/18 09:30:50;;;;;;;11.30;6.60;;;9.30;99.90;;;;;;4971792;28;20545;-73
2023/04/18 09:33:16;;;;;;;15.83;7.33;;;9.40;99.90;;;;;;4990308;28;20493;-73
2023/04/18 09:35:42;;;;;;;12.57;6.70;;;9.40;99.90;;;;;;4990332;28;20755;-73
2023/04/18 09:38:08;;;;;;;14.47;7.23;;;9.40;99.90;;;;;;4993110;28;20420;-73
2023/04/18 09:40:34;;;;;;;23.73;7.80;;;9.40;99.90;;;;;;4988249;28;20285;-73
2023/04/18 09:43:00;;;;;;;14.97;8.03;;;9.40;99.90;;;;;;4990299;28;20184;-73
2023/04/18 09:45:26;;;;;;;10.60;6.30;;;9.40;99.90;;;;;;4989066;28;20591;-71
2023/04/18 09:47:53;;;;;;;22.70;8.20;;;9.40;99.90;;;;;;4990475;28;20776;-71
2023/04/18 09:50:19;;;;;;;14.33;7.63;;;9.40;99.90;;;;;;4989852;28;20208;-72
2023/04/18 09:52:47;;;;;;;10.37;6.03;;;9.30;99.90;;;;;;4991459;28;20415;-73
2023/04/18 09:55:15;;;;;;;15.13;7.90;;;9.40;99.90;;;;;;4992276;28;20900;-72
2023/04/18 09:57:46;;;;;;;18.83;8.10;;;9.50;99.90;;;;;;4991833;28;20425;-72
2023/04/18 10:00:19;;;;;;;16.80;7.30;;;9.50;99.90;;;;;;4990791;28;20931;-72
2023/04/18 10:03:09;;;;;;;12.23;6.10;;;9.60;99.90;;;;;;4989241;28;20419;-71
2023/04/18 10:05:36;;;;;;;17.33;7.13;;;9.70;99.90;;;;;;4990691;28;20434;-71
2023/04/18 10:08:02;;;;;;;15.80;7.07;;;10.00;99.90;;;;;;4989592;28;20518;-71
2023/04/18 10:10:28;;;;;;;14.20;6.97;;;10.40;99.90;;;;;;4991497;28;20507;-71
2023/04/18 10:12:58;;;;;;;15.10;7.60;;;10.70;99.90;;;;;;4985643;28;20459;-71
2023/04/18 10:15:25;;;;;;;12.37;6.90;;;10.90;99.90;;;;;;4991149;28;20287;-71
2023/04/18 10:17:55;;;;;;;13.03;6.97;;;11.10;99.90;;;;;;4990668;28;20513;-72
2023/04/18 10:20:23;;;;;;;12.50;7.10;;;11.40;99.90;;;;;;4991249;28;20514;-72
2023/04/18 10:22:50;;;;;;;13.97;6.70;;;11.50;99.90;;;;;;4991247;28;20527;-72
2023/04/18 10:25:37;;;;;;;11.07;6.57;;;11.40;99.90;;;;;;4987258;28;20769;-72
2023/04/18 10:28:07;;;;;;;17.03;6.83;;;11.10;99.90;;;;;;4988892;28;20718;-71
2023/04/18 10:30:39;;;;;;;13.70;6.13;;;11.00;99.90;;;;;;4990112;28;20553;-71
2023/04/18 10:33:24;;;;;;;11.70;6.00;;;10.80;99.90;;;;;;4989580;28;20411;-72
2023/04/18 10:36:03;;;;;;;15.23;7.57;;;10.70;99.90;;;;;;4990358;28;20935;-72
2023/04/18 10:38:30;;;;;;;14.00;6.97;;;10.60;99.90;;;;;;4989048;28;20415;-72
2023/04/18 10:41:32;;;;;;;15.57;6.87;;;10.70;99.90;;;;;;4989543;28;20860;-71
2023/04/18 10:44:14;;;;;;;15.53;6.90;;;11.20;99.90;;;;;;4987755;28;20426;-72
2023/04/18 10:47:08;;;;;;;12.43;6.73;;;11.40;99.90;;;;;;4989729;28;20415;-71
2023/04/18 10:49:36;;;;;;;16.43;6.77;;;11.60;99.90;;;;;;4989047;28;20466;-72
2023/04/18 10:52:04;;;;;;;13.10;6.17;;;11.70;99.90;;;;;;4990649;28;20411;-73
2023/04/18 10:54:37;;;;;;;11.83;5.80;;;11.90;99.90;;;;;;4988443;28;20723;-72
2023/04/18 10:57:04;;;;;;;13.03;5.73;;;12.00;99.90;;;;;;4989292;28;20581;-72
2023/04/18 10:59:31;;;;;;;17.43;6.63;;;12.00;99.90;;;;;;4989260;28;20522;-71
2023/04/18 11:02:25;;;;;;;9.80;5.60;;;12.30;99.90;;;;;;4988092;28;20431;-72
2023/04/18 11:04:56;;;;;;;12.37;5.87;;;12.60;99.90;;;;;;4988814;28;20439;-72
2023/04/18 11:07:38;;;;;;;9.00;5.33;;;12.70;99.90;;;;;;4989617;28;20437;-72
2023/04/18 11:10:08;;;;;;;13.43;5.97;;;12.70;99.90;;;;;;4987811;28;21014;-72
2023/04/18 11:12:36;;;;;;;12.23;5.03;;;12.50;99.90;;;;;;4990433;28;20426;-72
2023/04/18 11:15:08;;;;;;;11.80;4.47;;;12.30;99.90;;;;;;4990281;28;20559;-72
2023/04/18 11:17:34;;;;;;;9.70;4.93;;;12.40;99.90;;;;;;4991854;28;20481;-72
2023/04/18 11:20:00;;;;;;;11.33;4.90;;;12.30;99.90;;;;;;4991656;28;20423;-72
2023/04/18 11:22:26;;;;;;;12.33;5.07;;;12.30;99.90;;;;;;4988836;28;20438;-72
2023/04/18 11:24:56;;;;;;;8.73;4.40;;;12.10;99.90;;;;;;4989690;28;20186;-72
2023/04/18 11:27:24;;;;;;;8.00;5.07;;;12.00;99.90;;;;;;4988853;28;20199;-72
2023/04/18 11:29:54;;;;;;;8.43;5.10;;;11.90;99.90;;;;;;4988982;28;20503;-72
2023/04/18 11:32:22;;;;;;;9.37;4.30;;;12.20;99.90;;;;;;4990803;28;20494;-72
2023/04/18 11:34:51;;;;;;;8.00;4.97;;;12.30;99.90;;;;;;4990885;28;21050;-72
2023/04/18 11:37:17;;;;;;;9.10;4.80;;;12.20;99.90;;;;;;4990102;28;20469;-72
2023/04/18 11:39:43;;;;;;;9.47;4.97;;;11.80;99.90;;;;;;4989051;28;20427;-72
2023/04/18 11:42:09;;;;;;;10.03;4.50;;;12.00;99.90;;;;;;4990515;28;20423;-73
2023/04/18 11:44:38;;;;;;;9.80;4.67;;;11.80;99.90;;;;;;4988821;28;20190;-72
2023/04/18 11:47:22;;;;;;;10.13;4.87;;;11.70;99.90;;;;;;4990824;28;20218;-73
2023/04/18 11:49:58;;;;;;;16.63;4.37;;;11.60;99.90;;;;;;4970727;28;20469;-73
2023/04/18 11:52:26;;;;;;;13.30;5.37;;;11.60;99.90;;;;;;4988787;28;20506;-73
2023/04/18 11:54:51;;;;;;;11.87;5.00;;;11.70;99.90;;;;;;4968158;28;20560;-74
2023/04/18 11:57:18;;;;;;;9.97;4.33;;;11.70;99.90;;;;;;4987710;28;20437;-73
2023/04/18 11:59:55;;;;;;;9.30;5.23;;;11.70;99.90;;;;;;4990440;28;20188;-73
2023/04/18 12:02:25;;;;;;;9.57;4.77;;;11.70;99.90;;;;;;4988263;28;20891;-74
2023/04/18 12:04:53;;;;;;;9.43;4.83;;;11.80;99.90;;;;;;4988469;28;21071;-74
2023/04/18 12:07:40;;;;;;;9.53;4.40;;;11.90;99.90;;;;;;4989563;28;20422;-74
2023/04/18 12:10:19;;;;;;;6.73;4.50;;;11.90;99.90;;;;;;4989227;28;20574;-73
2023/04/18 12:12:53;;;;;;;6.50;3.77;;;12.30;99.90;;;;;;4987838;28;20499;-73
2023/04/18 12:15:22;;;;;;;9.67;4.63;;;12.40;99.90;;;;;;4986277;28;20423;-73
2023/04/18 12:17:50;;;;;;;8.30;4.57;;;12.60;99.90;;;;;;4989126;28;20441;-74
2023/04/18 12:20:17;;;;;;;7.97;4.50;;;12.60;99.90;;;;;;4988720;28;20426;-74
2023/04/18 12:22:44;;;;;;;8.03;4.10;;;12.50;99.90;;;;;;4988816;28;20431;-74
2023/04/18 12:25:25;;;;;;;12.00;4.10;;;12.50;99.90;;;;;;4988983;28;20521;-74
2023/04/18 12:27:55;;;;;;;5.50;3.50;;;12.60;99.90;;;;;;4986193;28;20419;-74
2023/04/18 12:30:23;;;;;;;8.70;3.47;;;12.90;99.90;;;;;;4987087;28;20494;-74
2023/04/18 12:32:51;;;;;;;7.00;3.50;;;12.90;99.90;;;;;;4986277;28;20423;-74
2023/04/18 12:35:18;;;;;;;7.07;4.00;;;13.10;99.90;;;;;;4988381;28;20423;-74
2023/04/18 12:37:45;;;;;;;8.33;4.63;;;13.10;99.90;;;;;;4989505;28;20526;-74
2023/04/18 12:40:12;;;;;;;7.90;4.30;;;13.20;99.90;;;;;;4989035;28;20419;-74
2023/04/18 12:42:41;;;;;;;7.90;4.10;;;13.20;99.90;;;;;;4992856;28;20425;-73
2023/04/18 12:45:11;;;;;;;19.30;3.40;;;12.90;99.90;;;;;;4992339;28;20446;-74
2023/04/18 12:47:38;;;;;;;6.37;3.67;;;12.90;99.90;;;;;;4991493;28;20430;-74